sensor_id;sensor_type;location;lat;lon;timestamp;P1;durP1;ratioP1;P2;durP2;ratioP2
14704;SDS011;7442;50.840;3.396;2022-11-18T00:00:34;11.90;;;5.72;;
14704;SDS011;7442;50.840;3.396;2022-11-18T00:03:04;12.50;;;5.95;;
14704;SDS011;7442;50.840;3.396;2022-11-18T00:05:35;11.57;;;5.95;;
14704;SDS011;7442;50.840;3.396;2022-11-18T00:08:06;8.25;;;5.15;;
14704;SDS011;7442;50.840;3.396;2022-11-18T00:10:37;10.20;;;5.62;;
14704;SDS011;7442;50.840;3.396;2022-11-18T00:13:10;8.05;;;4.55;;
14704;SDS011;7442;50.840;3.396;2022-11-18T00:16:05;6.92;;;4.40;;
14704;SDS011;7442;50.840;3.396;2022-11-18T00:18:36;10.60;;;5.33;;
14704;SDS011;7442;50.840;3.396;2022-11-18T00:21:07;7.92;;;4.65;;
14704;SDS011;7442;50.840;3.396;2022-11-18T00:23:39;6.75;;;4.47;;
14704;SDS011;7442;50.840;3.396;2022-11-18T00:26:13;7.67;;;4.20;;
14704;SDS011;7442;50.840;3.396;2022-11-18T00:28:43;8.73;;;4.10;;
14704;SDS011;7442;50.840;3.396;2022-11-18T00:31:13;7.67;;;4.47;;
14704;SDS011;7442;50.840;3.396;2022-11-18T00:33:43;7.70;;;3.92;;
14704;SDS011;7442;50.840;3.396;2022-11-18T00:36:15;6.85;;;3.80;;
14704;SDS011;7442;50.840;3.396;2022-11-18T00:38:45;7.33;;;4.22;;
14704;SDS011;7442;50.840;3.396;2022-11-18T00:41:15;6.90;;;3.80;;
14704;SDS011;7442;50.840;3.396;2022-11-18T00:43:45;7.37;;;3.70;;
14704;SDS011;7442;50.840;3.396;2022-11-18T00:46:15;7.20;;;3.45;;
14704;SDS011;7442;50.840;3.396;2022-11-18T00:48:45;6.08;;;3.83;;
14704;SDS011;7442;50.840;3.396;2022-11-18T00:51:16;5.67;;;3.42;;
14704;SDS011;7442;50.840;3.396;2022-11-18T00:53:47;4.42;;;3.12;;
14704;SDS011;7442;50.840;3.396;2022-11-18T00:56:17;3.87;;;2.92;;
14704;SDS011;7442;50.840;3.396;2022-11-18T00:58:47;5.83;;;3.30;;
14704;SDS011;7442;50.840;3.396;2022-11-18T01:01:17;5.33;;;3.10;;
14704;SDS011;7442;50.840;3.396;2022-11-18T01:03:47;6.33;;;3.52;;
14704;SDS011;7442;50.840;3.396;2022-11-18T01:06:17;7.00;;;3.47;;
14704;SDS011;7442;50.840;3.396;2022-11-18T01:08:47;4.95;;;3.22;;
14704;SDS011;7442;50.840;3.396;2022-11-18T01:11:17;4.00;;;2.75;;
14704;SDS011;7442;50.840;3.396;2022-11-18T01:14:05;4.35;;;2.77;;
14704;SDS011;7442;50.840;3.396;2022-11-18T01:16:36;4.95;;;3.08;;
14704;SDS011;7442;50.840;3.396;2022-11-18T01:19:06;5.08;;;2.55;;
14704;SDS011;7442;50.840;3.396;2022-11-18T01:21:36;3.75;;;2.83;;
14704;SDS011;7442;50.840;3.396;2022-11-18T01:24:08;4.40;;;2.87;;
14704;SDS011;7442;50.840;3.396;2022-11-18T01:26:38;5.22;;;2.55;;
14704;SDS011;7442;50.840;3.396;2022-11-18T01:29:08;4.87;;;2.60;;
14704;SDS011;7442;50.840;3.396;2022-11-18T01:31:38;5.08;;;2.40;;
14704;SDS011;7442;50.840;3.396;2022-11-18T01:34:08;3.50;;;2.50;;
14704;SDS011;7442;50.840;3.396;2022-11-18T01:36:39;3.05;;;2.40;;
14704;SDS011;7442;50.840;3.396;2022-11-18T01:39:09;3.45;;;2.15;;
14704;SDS011;7442;50.840;3.396;2022-11-18T01:41:39;4.33;;;2.95;;
14704;SDS011;7442;50.840;3.396;2022-11-18T01:47:15;3.20;;;2.50;;
14704;SDS011;7442;50.840;3.396;2022-11-18T01:49:46;3.27;;;2.52;;
14704;SDS011;7442;50.840;3.396;2022-11-18T01:52:16;4.45;;;2.50;;
14704;SDS011;7442;50.840;3.396;2022-11-18T01:54:47;2.83;;;2.15;;
14704;SDS011;7442;50.840;3.396;2022-11-18T01:57:20;4.22;;;2.00;;
14704;SDS011;7442;50.840;3.396;2022-11-18T01:59:53;2.65;;;2.00;;
14704;SDS011;7442;50.840;3.396;2022-11-18T02:02:25;2.98;;;2.25;;
14704;SDS011;7442;50.840;3.396;2022-11-18T02:04:57;3.10;;;1.92;;
14704;SDS011;7442;50.840;3.396;2022-11-18T02:07:28;3.95;;;2.05;;
14704;SDS011;7442;50.840;3.396;2022-11-18T02:10:03;2.77;;;1.95;;
14704;SDS011;7442;50.840;3.396;2022-11-18T02:12:34;3.12;;;2.08;;
14704;SDS011;7442;50.840;3.396;2022-11-18T02:15:05;2.55;;;1.92;;
14704;SDS011;7442;50.840;3.396;2022-11-18T02:17:40;3.15;;;2.15;;
14704;SDS011;7442;50.840;3.396;2022-11-18T02:20:18;2.90;;;2.00;;
14704;SDS011;7442;50.840;3.396;2022-11-18T02:26:03;4.17;;;1.85;;
14704;SDS011;7442;50.840;3.396;2022-11-18T02:37:10;2.77;;;1.75;;
14704;SDS011;7442;50.840;3.396;2022-11-18T02:39:44;2.40;;;1.80;;
14704;SDS011;7442;50.840;3.396;2022-11-18T02:42:16;3.22;;;1.85;;
14704;SDS011;7442;50.840;3.396;2022-11-18T02:44:49;2.50;;;1.65;;
14704;SDS011;7442;50.840;3.396;2022-11-18T02:47:20;2.60;;;1.70;;
14704;SDS011;7442;50.840;3.396;2022-11-18T02:49:54;3.40;;;1.77;;
14704;SDS011;7442;50.840;3.396;2022-11-18T02:52:25;2.05;;;1.60;;
14704;SDS011;7442;50.840;3.396;2022-11-18T02:54:56;2.52;;;1.50;;
14704;SDS011;7442;50.840;3.396;2022-11-18T02:57:28;1.45;;;1.35;;
14704;SDS011;7442;50.840;3.396;2022-11-18T03:00:02;2.87;;;1.55;;
14704;SDS011;7442;50.840;3.396;2022-11-18T03:02:39;2.20;;;1.50;;
14704;SDS011;7442;50.840;3.396;2022-11-18T03:08:06;2.75;;;1.70;;
14704;SDS011;7442;50.840;3.396;2022-11-18T03:10:38;1.85;;;1.42;;
14704;SDS011;7442;50.840;3.396;2022-11-18T03:13:34;3.27;;;1.27;;
14704;SDS011;7442;50.840;3.396;2022-11-18T03:18:44;2.27;;;1.30;;
14704;SDS011;7442;50.840;3.396;2022-11-18T03:21:19;1.92;;;1.50;;
14704;SDS011;7442;50.840;3.396;2022-11-18T03:23:53;3.27;;;1.50;;
14704;SDS011;7442;50.840;3.396;2022-11-18T03:26:38;1.90;;;1.40;;
14704;SDS011;7442;50.840;3.396;2022-11-18T03:29:12;1.82;;;1.12;;
14704;SDS011;7442;50.840;3.396;2022-11-18T03:31:48;2.62;;;1.47;;
14704;SDS011;7442;50.840;3.396;2022-11-18T03:34:39;2.00;;;1.40;;
14704;SDS011;7442;50.840;3.396;2022-11-18T03:37:11;2.17;;;1.40;;
14704;SDS011;7442;50.840;3.396;2022-11-18T03:39:52;2.60;;;1.17;;
14704;SDS011;7442;50.840;3.396;2022-11-18T03:42:34;1.00;;;0.90;;
14704;SDS011;7442;50.840;3.396;2022-11-18T03:45:09;1.30;;;1.10;;
14704;SDS011;7442;50.840;3.396;2022-11-18T03:47:46;2.47;;;1.45;;
14704;SDS011;7442;50.840;3.396;2022-11-18T03:52:50;1.85;;;1.10;;
14704;SDS011;7442;50.840;3.396;2022-11-18T03:55:23;1.35;;;0.93;;
14704;SDS011;7442;50.840;3.396;2022-11-18T03:58:09;1.15;;;1.05;;
14704;SDS011;7442;50.840;3.396;2022-11-18T04:00:52;1.82;;;1.00;;
14704;SDS011;7442;50.840;3.396;2022-11-18T04:03:24;1.40;;;1.20;;
14704;SDS011;7442;50.840;3.396;2022-11-18T04:05:57;1.80;;;1.30;;
14704;SDS011;7442;50.840;3.396;2022-11-18T04:08:28;1.40;;;0.82;;
14704;SDS011;7442;50.840;3.396;2022-11-18T04:11:05;1.40;;;1.10;;
14704;SDS011;7442;50.840;3.396;2022-11-18T04:13:47;2.92;;;1.30;;
14704;SDS011;7442;50.840;3.396;2022-11-18T04:16:17;1.62;;;1.10;;
14704;SDS011;7442;50.840;3.396;2022-11-18T04:18:47;1.47;;;0.98;;
14704;SDS011;7442;50.840;3.396;2022-11-18T04:21:17;1.32;;;0.98;;
14704;SDS011;7442;50.840;3.396;2022-11-18T04:23:47;2.22;;;1.17;;
14704;SDS011;7442;50.840;3.396;2022-11-18T04:26:17;1.62;;;0.90;;
14704;SDS011;7442;50.840;3.396;2022-11-18T04:28:47;1.40;;;1.05;;
14704;SDS011;7442;50.840;3.396;2022-11-18T04:31:17;1.45;;;1.05;;
14704;SDS011;7442;50.840;3.396;2022-11-18T04:33:47;2.77;;;1.32;;
14704;SDS011;7442;50.840;3.396;2022-11-18T04:36:18;1.42;;;1.00;;
14704;SDS011;7442;50.840;3.396;2022-11-18T04:38:52;1.25;;;1.07;;
14704;SDS011;7442;50.840;3.396;2022-11-18T04:41:23;1.30;;;0.93;;
14704;SDS011;7442;50.840;3.396;2022-11-18T04:43:55;1.50;;;1.05;;
14704;SDS011;7442;50.840;3.396;2022-11-18T04:46:25;2.65;;;1.00;;
14704;SDS011;7442;50.840;3.396;2022-11-18T04:48:55;1.65;;;1.10;;
14704;SDS011;7442;50.840;3.396;2022-11-18T04:51:25;1.45;;;0.70;;
14704;SDS011;7442;50.840;3.396;2022-11-18T04:53:55;1.20;;;0.85;;
14704;SDS011;7442;50.840;3.396;2022-11-18T04:56:25;1.30;;;0.80;;
14704;SDS011;7442;50.840;3.396;2022-11-18T04:58:55;1.17;;;0.95;;
14704;SDS011;7442;50.840;3.396;2022-11-18T05:01:27;1.87;;;1.07;;
14704;SDS011;7442;50.840;3.396;2022-11-18T05:04:00;1.02;;;0.85;;
14704;SDS011;7442;50.840;3.396;2022-11-18T05:06:34;0.90;;;0.80;;
14704;SDS011;7442;50.840;3.396;2022-11-18T05:09:04;1.10;;;1.00;;
14704;SDS011;7442;50.840;3.396;2022-11-18T05:11:34;1.52;;;0.88;;
14704;SDS011;7442;50.840;3.396;2022-11-18T05:14:26;1.27;;;1.00;;
14704;SDS011;7442;50.840;3.396;2022-11-18T05:16:58;1.15;;;0.85;;
14704;SDS011;7442;50.840;3.396;2022-11-18T05:19:29;1.75;;;1.10;;
14704;SDS011;7442;50.840;3.396;2022-11-18T05:21:59;1.75;;;0.90;;
14704;SDS011;7442;50.840;3.396;2022-11-18T05:24:29;1.50;;;1.00;;
14704;SDS011;7442;50.840;3.396;2022-11-18T05:26:59;1.37;;;0.88;;
14704;SDS011;7442;50.840;3.396;2022-11-18T05:29:30;1.15;;;0.90;;
14704;SDS011;7442;50.840;3.396;2022-11-18T05:32:00;0.95;;;0.65;;
14704;SDS011;7442;50.840;3.396;2022-11-18T05:34:31;2.45;;;0.90;;
14704;SDS011;7442;50.840;3.396;2022-11-18T05:37:01;1.45;;;1.05;;
14704;SDS011;7442;50.840;3.396;2022-11-18T05:39:31;1.17;;;0.93;;
14704;SDS011;7442;50.840;3.396;2022-11-18T05:42:05;1.17;;;0.90;;
14704;SDS011;7442;50.840;3.396;2022-11-18T05:44:53;1.20;;;0.90;;
14704;SDS011;7442;50.840;3.396;2022-11-18T05:47:27;1.07;;;0.60;;
14704;SDS011;7442;50.840;3.396;2022-11-18T05:49:59;2.12;;;1.15;;
14704;SDS011;7442;50.840;3.396;2022-11-18T05:52:29;1.30;;;0.80;;
14704;SDS011;7442;50.840;3.396;2022-11-18T05:54:59;1.22;;;1.02;;
14704;SDS011;7442;50.840;3.396;2022-11-18T05:57:29;1.40;;;0.90;;
14704;SDS011;7442;50.840;3.396;2022-11-18T05:59:59;1.22;;;0.85;;
14704;SDS011;7442;50.840;3.396;2022-11-18T06:02:29;1.17;;;0.93;;
14704;SDS011;7442;50.840;3.396;2022-11-18T06:05:00;1.27;;;0.80;;
14704;SDS011;7442;50.840;3.396;2022-11-18T06:07:33;2.35;;;1.45;;
14704;SDS011;7442;50.840;3.396;2022-11-18T06:10:06;1.03;;;0.70;;
14704;SDS011;7442;50.840;3.396;2022-11-18T06:12:38;1.05;;;0.70;;
14704;SDS011;7442;50.840;3.396;2022-11-18T06:15:21;1.77;;;0.80;;
14704;SDS011;7442;50.840;3.396;2022-11-18T06:17:54;1.72;;;0.80;;
14704;SDS011;7442;50.840;3.396;2022-11-18T06:20:34;8.38;;;3.85;;
14704;SDS011;7442;50.840;3.396;2022-11-18T06:22:59;15.05;;;7.30;;
14704;SDS011;7442;50.840;3.396;2022-11-18T06:25:29;12.85;;;5.03;;
14704;SDS011;7442;50.840;3.396;2022-11-18T06:28:00;9.95;;;3.85;;
14704;SDS011;7442;50.840;3.396;2022-11-18T06:30:31;7.83;;;3.75;;
14704;SDS011;7442;50.840;3.396;2022-11-18T06:33:01;25.43;;;14.58;;
14704;SDS011;7442;50.840;3.396;2022-11-18T06:35:31;13.48;;;8.18;;
14704;SDS011;7442;50.840;3.396;2022-11-18T06:38:01;15.85;;;8.33;;
14704;SDS011;7442;50.840;3.396;2022-11-18T06:40:31;15.72;;;7.65;;
14704;SDS011;7442;50.840;3.396;2022-11-18T06:43:08;12.33;;;6.60;;
14704;SDS011;7442;50.840;3.396;2022-11-18T06:45:57;11.20;;;6.80;;
14704;SDS011;7442;50.840;3.396;2022-11-18T06:48:46;10.15;;;5.92;;
14704;SDS011;7442;50.840;3.396;2022-11-18T06:51:16;9.55;;;6.00;;
14704;SDS011;7442;50.840;3.396;2022-11-18T06:53:46;9.58;;;5.78;;
14704;SDS011;7442;50.840;3.396;2022-11-18T06:56:17;11.50;;;5.62;;
14704;SDS011;7442;50.840;3.396;2022-11-18T06:58:51;6.15;;;4.33;;
14704;SDS011;7442;50.840;3.396;2022-11-18T07:01:24;9.63;;;4.45;;
14704;SDS011;7442;50.840;3.396;2022-11-18T07:03:56;6.62;;;4.08;;
14704;SDS011;7442;50.840;3.396;2022-11-18T07:06:29;8.30;;;4.12;;
14704;SDS011;7442;50.840;3.396;2022-11-18T07:09:01;5.62;;;3.90;;
14704;SDS011;7442;50.840;3.396;2022-11-18T07:11:33;8.40;;;3.55;;
14704;SDS011;7442;50.840;3.396;2022-11-18T07:14:04;7.08;;;3.47;;
14704;SDS011;7442;50.840;3.396;2022-11-18T07:16:35;7.25;;;3.27;;
14704;SDS011;7442;50.840;3.396;2022-11-18T07:19:09;6.03;;;3.40;;
14704;SDS011;7442;50.840;3.396;2022-11-18T07:21:40;5.93;;;2.90;;
14704;SDS011;7442;50.840;3.396;2022-11-18T07:24:11;5.78;;;3.20;;
14704;SDS011;7442;50.840;3.396;2022-11-18T07:26:43;9.38;;;3.22;;
14704;SDS011;7442;50.840;3.396;2022-11-18T07:29:14;11.68;;;3.87;;
14704;SDS011;7442;50.840;3.396;2022-11-18T07:31:44;10.38;;;3.98;;
14704;SDS011;7442;50.840;3.396;2022-11-18T07:34:14;14.45;;;4.03;;
14704;SDS011;7442;50.840;3.396;2022-11-18T07:36:46;10.08;;;4.00;;
14704;SDS011;7442;50.840;3.396;2022-11-18T07:39:16;12.18;;;4.28;;
14704;SDS011;7442;50.840;3.396;2022-11-18T07:41:46;8.65;;;3.75;;
14704;SDS011;7442;50.840;3.396;2022-11-18T07:44:16;7.40;;;3.60;;
14704;SDS011;7442;50.840;3.396;2022-11-18T07:46:46;9.93;;;3.40;;
14704;SDS011;7442;50.840;3.396;2022-11-18T07:49:22;8.38;;;2.95;;
14704;SDS011;7442;50.840;3.396;2022-11-18T07:51:48;7.12;;;3.30;;
14704;SDS011;7442;50.840;3.396;2022-11-18T07:54:18;7.33;;;2.52;;
14704;SDS011;7442;50.840;3.396;2022-11-18T07:56:48;7.00;;;2.92;;
14704;SDS011;7442;50.840;3.396;2022-11-18T07:59:18;5.33;;;3.20;;
14704;SDS011;7442;50.840;3.396;2022-11-18T08:01:48;10.40;;;3.52;;
14704;SDS011;7442;50.840;3.396;2022-11-18T08:04:18;7.58;;;3.10;;
14704;SDS011;7442;50.840;3.396;2022-11-18T08:06:48;6.58;;;2.58;;
14704;SDS011;7442;50.840;3.396;2022-11-18T08:09:18;7.12;;;2.80;;
14704;SDS011;7442;50.840;3.396;2022-11-18T08:11:48;6.25;;;2.65;;
14704;SDS011;7442;50.840;3.396;2022-11-18T08:14:18;11.68;;;3.65;;
14704;SDS011;7442;50.840;3.396;2022-11-18T08:16:49;5.15;;;2.70;;
14704;SDS011;7442;50.840;3.396;2022-11-18T08:19:19;7.62;;;2.67;;
14704;SDS011;7442;50.840;3.396;2022-11-18T08:21:50;5.03;;;2.65;;
14704;SDS011;7442;50.840;3.396;2022-11-18T08:24:20;6.65;;;2.55;;
14704;SDS011;7442;50.840;3.396;2022-11-18T08:26:51;4.40;;;2.22;;
14704;SDS011;7442;50.840;3.396;2022-11-18T08:29:21;7.05;;;2.25;;
14704;SDS011;7442;50.840;3.396;2022-11-18T08:31:51;7.92;;;2.33;;
14704;SDS011;7442;50.840;3.396;2022-11-18T08:34:21;6.05;;;2.50;;
14704;SDS011;7442;50.840;3.396;2022-11-18T08:36:51;5.47;;;2.25;;
14704;SDS011;7442;50.840;3.396;2022-11-18T08:39:21;4.92;;;2.20;;
14704;SDS011;7442;50.840;3.396;2022-11-18T08:41:52;3.42;;;2.10;;
14704;SDS011;7442;50.840;3.396;2022-11-18T08:44:22;3.87;;;2.00;;
14704;SDS011;7442;50.840;3.396;2022-11-18T08:46:52;5.37;;;2.30;;
14704;SDS011;7442;50.840;3.396;2022-11-18T08:49:22;5.28;;;2.22;;
14704;SDS011;7442;50.840;3.396;2022-11-18T08:51:52;5.83;;;1.80;;
14704;SDS011;7442;50.840;3.396;2022-11-18T08:54:22;7.95;;;2.30;;
14704;SDS011;7442;50.840;3.396;2022-11-18T08:56:58;6.70;;;2.25;;
14704;SDS011;7442;50.840;3.396;2022-11-18T08:59:29;3.70;;;2.05;;
14704;SDS011;7442;50.840;3.396;2022-11-18T09:01:59;5.50;;;1.80;;
14704;SDS011;7442;50.840;3.396;2022-11-18T09:04:29;7.10;;;2.15;;
14704;SDS011;7442;50.840;3.396;2022-11-18T09:07:00;10.18;;;2.27;;
14704;SDS011;7442;50.840;3.396;2022-11-18T09:09:30;6.42;;;2.02;;
14704;SDS011;7442;50.840;3.396;2022-11-18T09:12:00;4.67;;;1.98;;
14704;SDS011;7442;50.840;3.396;2022-11-18T09:14:30;5.22;;;2.20;;
14704;SDS011;7442;50.840;3.396;2022-11-18T09:17:00;3.25;;;1.65;;
14704;SDS011;7442;50.840;3.396;2022-11-18T09:19:30;4.83;;;2.22;;
14704;SDS011;7442;50.840;3.396;2022-11-18T09:22:00;4.42;;;2.00;;
14704;SDS011;7442;50.840;3.396;2022-11-18T09:24:32;3.27;;;2.00;;
14704;SDS011;7442;50.840;3.396;2022-11-18T09:27:03;3.98;;;2.05;;
14704;SDS011;7442;50.840;3.396;2022-11-18T09:29:34;4.60;;;2.05;;
14704;SDS011;7442;50.840;3.396;2022-11-18T09:32:04;4.58;;;2.37;;
14704;SDS011;7442;50.840;3.396;2022-11-18T09:34:34;3.83;;;2.02;;
14704;SDS011;7442;50.840;3.396;2022-11-18T09:37:04;5.97;;;2.00;;
14704;SDS011;7442;50.840;3.396;2022-11-18T09:39:34;3.98;;;2.02;;
14704;SDS011;7442;50.840;3.396;2022-11-18T09:42:09;4.35;;;1.95;;
14704;SDS011;7442;50.840;3.396;2022-11-18T09:47:35;5.35;;;1.92;;
14704;SDS011;7442;50.840;3.396;2022-11-18T09:50:06;3.90;;;1.95;;
14704;SDS011;7442;50.840;3.396;2022-11-18T09:55:30;4.28;;;1.92;;
14704;SDS011;7442;50.840;3.396;2022-11-18T09:58:04;4.92;;;2.00;;
14704;SDS011;7442;50.840;3.396;2022-11-18T10:00:35;3.17;;;1.90;;
14704;SDS011;7442;50.840;3.396;2022-11-18T10:03:10;4.12;;;2.00;;
14704;SDS011;7442;50.840;3.396;2022-11-18T10:11:27;3.83;;;1.85;;
14704;SDS011;7442;50.840;3.396;2022-11-18T10:13:59;5.47;;;1.85;;
14704;SDS011;7442;50.840;3.396;2022-11-18T10:16:53;3.67;;;1.70;;
14704;SDS011;7442;50.840;3.396;2022-11-18T10:19:42;4.72;;;2.20;;
14704;SDS011;7442;50.840;3.396;2022-11-18T10:22:28;4.08;;;1.80;;
14704;SDS011;7442;50.840;3.396;2022-11-18T10:24:59;6.55;;;2.27;;
14704;SDS011;7442;50.840;3.396;2022-11-18T10:27:34;5.37;;;1.98;;
14704;SDS011;7442;50.840;3.396;2022-11-18T10:30:24;2.05;;;1.42;;
14704;SDS011;7442;50.840;3.396;2022-11-18T10:33:04;4.55;;;2.15;;
14704;SDS011;7442;50.840;3.396;2022-11-18T10:35:32;5.20;;;1.90;;
14704;SDS011;7442;50.840;3.396;2022-11-18T10:38:26;5.50;;;2.25;;
14704;SDS011;7442;50.840;3.396;2022-11-18T10:40:44;3.17;;;1.50;;
14704;SDS011;7442;50.840;3.396;2022-11-18T10:43:46;5.70;;;2.22;;
14704;SDS011;7442;50.840;3.396;2022-11-18T10:51:45;3.42;;;1.90;;
14704;SDS011;7442;50.840;3.396;2022-11-18T10:54:36;3.83;;;2.05;;
14704;SDS011;7442;50.840;3.396;2022-11-18T10:57:12;6.65;;;2.10;;
14704;SDS011;7442;50.840;3.396;2022-11-18T10:59:47;6.97;;;2.40;;
14704;SDS011;7442;50.840;3.396;2022-11-18T11:02:19;3.70;;;2.02;;
14704;SDS011;7442;50.840;3.396;2022-11-18T11:04:58;4.62;;;1.82;;
14704;SDS011;7442;50.840;3.396;2022-11-18T11:07:32;3.65;;;2.25;;
14704;SDS011;7442;50.840;3.396;2022-11-18T11:12:47;5.40;;;2.12;;
14704;SDS011;7442;50.840;3.396;2022-11-18T11:15:41;4.47;;;2.08;;
14704;SDS011;7442;50.840;3.396;2022-11-18T11:18:03;5.53;;;2.20;;
14704;SDS011;7442;50.840;3.396;2022-11-18T11:20:50;4.33;;;2.42;;
14704;SDS011;7442;50.840;3.396;2022-11-18T11:23:22;7.85;;;2.30;;
14704;SDS011;7442;50.840;3.396;2022-11-18T11:26:00;6.33;;;2.67;;
14704;SDS011;7442;50.840;3.396;2022-11-18T11:28:41;8.63;;;2.60;;
14704;SDS011;7442;50.840;3.396;2022-11-18T11:37:03;5.55;;;2.45;;
14704;SDS011;7442;50.840;3.396;2022-11-18T11:39:58;7.83;;;3.10;;
14704;SDS011;7442;50.840;3.396;2022-11-18T11:42:34;7.05;;;2.92;;
14704;SDS011;7442;50.840;3.396;2022-11-18T11:50:55;5.83;;;2.22;;
14704;SDS011;7442;50.840;3.396;2022-11-18T12:04:53;8.10;;;2.60;;
14704;SDS011;7442;50.840;3.396;2022-11-18T12:07:27;7.72;;;2.75;;
14704;SDS011;7442;50.840;3.396;2022-11-18T12:10:01;8.40;;;2.87;;
14704;SDS011;7442;50.840;3.396;2022-11-18T12:15:48;6.95;;;2.60;;
14704;SDS011;7442;50.840;3.396;2022-11-18T12:20:54;7.83;;;2.90;;
14704;SDS011;7442;50.840;3.396;2022-11-18T12:23:25;9.20;;;2.55;;
14704;SDS011;7442;50.840;3.396;2022-11-18T12:25:57;7.78;;;3.08;;
14704;SDS011;7442;50.840;3.396;2022-11-18T12:28:33;8.68;;;2.70;;
14704;SDS011;7442;50.840;3.396;2022-11-18T12:33:53;7.17;;;2.77;;
14704;SDS011;7442;50.840;3.396;2022-11-18T12:36:26;6.47;;;2.50;;
14704;SDS011;7442;50.840;3.396;2022-11-18T12:41:57;6.87;;;2.20;;
14704;SDS011;7442;50.840;3.396;2022-11-18T12:44:49;8.45;;;2.60;;
14704;SDS011;7442;50.840;3.396;2022-11-18T12:50:12;3.72;;;1.98;;
14704;SDS011;7442;50.840;3.396;2022-11-18T12:52:47;9.38;;;2.90;;
14704;SDS011;7442;50.840;3.396;2022-11-18T12:55:21;6.80;;;2.37;;
14704;SDS011;7442;50.840;3.396;2022-11-18T12:57:56;5.00;;;2.58;;
14704;SDS011;7442;50.840;3.396;2022-11-18T13:00:27;6.85;;;2.30;;
14704;SDS011;7442;50.840;3.396;2022-11-18T13:02:59;7.17;;;2.55;;
14704;SDS011;7442;50.840;3.396;2022-11-18T13:05:31;6.22;;;2.40;;
14704;SDS011;7442;50.840;3.396;2022-11-18T13:08:08;5.45;;;2.42;;
14704;SDS011;7442;50.840;3.396;2022-11-18T13:13:41;7.05;;;2.40;;
14704;SDS011;7442;50.840;3.396;2022-11-18T13:16:20;5.50;;;2.40;;
14704;SDS011;7442;50.840;3.396;2022-11-18T13:19:08;7.12;;;2.58;;
14704;SDS011;7442;50.840;3.396;2022-11-18T13:21:40;5.17;;;1.90;;
14704;SDS011;7442;50.840;3.396;2022-11-18T13:24:41;5.22;;;2.30;;
14704;SDS011;7442;50.840;3.396;2022-11-18T13:27:07;4.83;;;2.42;;
14704;SDS011;7442;50.840;3.396;2022-11-18T13:29:44;4.67;;;2.00;;
14704;SDS011;7442;50.840;3.396;2022-11-18T13:32:28;6.53;;;2.35;;
14704;SDS011;7442;50.840;3.396;2022-11-18T13:35:18;6.10;;;2.83;;
14704;SDS011;7442;50.840;3.396;2022-11-18T13:38:01;5.95;;;2.27;;
14704;SDS011;7442;50.840;3.396;2022-11-18T13:40:30;3.70;;;2.00;;
14704;SDS011;7442;50.840;3.396;2022-11-18T13:43:10;4.50;;;2.12;;
14704;SDS011;7442;50.840;3.396;2022-11-18T13:45:40;4.40;;;1.80;;
14704;SDS011;7442;50.840;3.396;2022-11-18T13:48:11;5.00;;;2.72;;
14704;SDS011;7442;50.840;3.396;2022-11-18T13:50:45;4.35;;;1.92;;
14704;SDS011;7442;50.840;3.396;2022-11-18T13:53:31;7.20;;;1.92;;
14704;SDS011;7442;50.840;3.396;2022-11-18T13:56:24;4.00;;;2.30;;
14704;SDS011;7442;50.840;3.396;2022-11-18T13:58:58;6.30;;;2.02;;
14704;SDS011;7442;50.840;3.396;2022-11-18T14:01:30;4.90;;;1.90;;
14704;SDS011;7442;50.840;3.396;2022-11-18T14:04:03;3.92;;;1.98;;
14704;SDS011;7442;50.840;3.396;2022-11-18T14:06:51;4.78;;;1.82;;
14704;SDS011;7442;50.840;3.396;2022-11-18T14:12:01;4.95;;;2.20;;
14704;SDS011;7442;50.840;3.396;2022-11-18T14:14:37;4.97;;;2.05;;
14704;SDS011;7442;50.840;3.396;2022-11-18T14:17:14;4.40;;;1.90;;
14704;SDS011;7442;50.840;3.396;2022-11-18T14:19:52;4.35;;;1.62;;
14704;SDS011;7442;50.840;3.396;2022-11-18T14:22:25;3.85;;;1.95;;
14704;SDS011;7442;50.840;3.396;2022-11-18T14:25:18;3.90;;;1.67;;
14704;SDS011;7442;50.840;3.396;2022-11-18T14:27:57;5.10;;;1.90;;
14704;SDS011;7442;50.840;3.396;2022-11-18T14:30:41;4.60;;;1.90;;
14704;SDS011;7442;50.840;3.396;2022-11-18T14:33:33;6.95;;;2.27;;
14704;SDS011;7442;50.840;3.396;2022-11-18T14:36:13;3.50;;;1.50;;
14704;SDS011;7442;50.840;3.396;2022-11-18T14:38:46;3.65;;;1.62;;
14704;SDS011;7442;50.840;3.396;2022-11-18T14:41:18;3.65;;;1.87;;
14704;SDS011;7442;50.840;3.396;2022-11-18T14:43:51;4.67;;;2.02;;
14704;SDS011;7442;50.840;3.396;2022-11-18T14:46:21;3.30;;;1.60;;
14704;SDS011;7442;50.840;3.396;2022-11-18T14:48:53;4.53;;;1.82;;
14704;SDS011;7442;50.840;3.396;2022-11-18T14:51:24;4.70;;;1.70;;
14704;SDS011;7442;50.840;3.396;2022-11-18T14:53:54;4.17;;;1.85;;
14704;SDS011;7442;50.840;3.396;2022-11-18T14:59:04;3.42;;;1.50;;
14704;SDS011;7442;50.840;3.396;2022-11-18T15:01:34;5.60;;;2.08;;
14704;SDS011;7442;50.840;3.396;2022-11-18T15:04:04;3.67;;;1.57;;
14704;SDS011;7442;50.840;3.396;2022-11-18T15:06:34;5.53;;;1.90;;
14704;SDS011;7442;50.840;3.396;2022-11-18T15:09:05;3.45;;;1.70;;
14704;SDS011;7442;50.840;3.396;2022-11-18T15:11:36;4.12;;;1.95;;
14704;SDS011;7442;50.840;3.396;2022-11-18T15:14:06;4.17;;;1.52;;
14704;SDS011;7442;50.840;3.396;2022-11-18T15:16:36;5.45;;;2.10;;
14704;SDS011;7442;50.840;3.396;2022-11-18T15:19:14;2.77;;;1.92;;
14704;SDS011;7442;50.840;3.396;2022-11-18T15:21:44;8.58;;;2.12;;
14704;SDS011;7442;50.840;3.396;2022-11-18T15:24:14;8.70;;;2.00;;
14704;SDS011;7442;50.840;3.396;2022-11-18T15:26:45;3.17;;;1.80;;
14704;SDS011;7442;50.840;3.396;2022-11-18T15:29:19;6.28;;;1.90;;
14704;SDS011;7442;50.840;3.396;2022-11-18T15:31:50;5.03;;;2.12;;
14704;SDS011;7442;50.840;3.396;2022-11-18T15:34:21;3.90;;;2.10;;
14704;SDS011;7442;50.840;3.396;2022-11-18T15:36:51;19.98;;;2.52;;
14704;SDS011;7442;50.840;3.396;2022-11-18T15:39:21;27.87;;;2.62;;
14704;SDS011;7442;50.840;3.396;2022-11-18T15:41:51;29.05;;;2.45;;
14704;SDS011;7442;50.840;3.396;2022-11-18T15:44:22;16.42;;;2.62;;
14704;SDS011;7442;50.840;3.396;2022-11-18T15:46:52;20.80;;;2.45;;
14704;SDS011;7442;50.840;3.396;2022-11-18T15:49:24;12.95;;;2.20;;
14704;SDS011;7442;50.840;3.396;2022-11-18T15:51:54;12.05;;;2.33;;
14704;SDS011;7442;50.840;3.396;2022-11-18T15:54:24;10.75;;;2.33;;
14704;SDS011;7442;50.840;3.396;2022-11-18T15:56:54;6.70;;;2.30;;
14704;SDS011;7442;50.840;3.396;2022-11-18T15:59:24;13.10;;;2.37;;
14704;SDS011;7442;50.840;3.396;2022-11-18T16:01:55;12.85;;;2.45;;
14704;SDS011;7442;50.840;3.396;2022-11-18T16:04:25;9.93;;;2.27;;
14704;SDS011;7442;50.840;3.396;2022-11-18T16:06:55;8.15;;;2.47;;
14704;SDS011;7442;50.840;3.396;2022-11-18T16:09:27;9.15;;;2.77;;
14704;SDS011;7442;50.840;3.396;2022-11-18T16:11:59;9.98;;;2.58;;
14704;SDS011;7442;50.840;3.396;2022-11-18T16:14:49;5.15;;;2.80;;
14704;SDS011;7442;50.840;3.396;2022-11-18T16:17:20;10.68;;;2.95;;
14704;SDS011;7442;50.840;3.396;2022-11-18T16:19:50;8.40;;;3.08;;
14704;SDS011;7442;50.840;3.396;2022-11-18T16:22:20;7.20;;;3.02;;
14704;SDS011;7442;50.840;3.396;2022-11-18T16:24:50;5.83;;;2.52;;
14704;SDS011;7442;50.840;3.396;2022-11-18T16:27:21;7.12;;;2.65;;
14704;SDS011;7442;50.840;3.396;2022-11-18T16:29:51;8.75;;;2.47;;
14704;SDS011;7442;50.840;3.396;2022-11-18T16:32:21;6.00;;;2.58;;
14704;SDS011;7442;50.840;3.396;2022-11-18T16:34:51;4.72;;;2.83;;
14704;SDS011;7442;50.840;3.396;2022-11-18T16:37:21;7.70;;;2.70;;
14704;SDS011;7442;50.840;3.396;2022-11-18T16:39:51;5.03;;;2.60;;
14704;SDS011;7442;50.840;3.396;2022-11-18T16:42:21;6.20;;;2.77;;
14704;SDS011;7442;50.840;3.396;2022-11-18T16:44:52;7.03;;;2.72;;
14704;SDS011;7442;50.840;3.396;2022-11-18T16:47:22;5.30;;;2.95;;
14704;SDS011;7442;50.840;3.396;2022-11-18T16:49:52;5.80;;;2.72;;
14704;SDS011;7442;50.840;3.396;2022-11-18T16:52:22;3.72;;;2.40;;
14704;SDS011;7442;50.840;3.396;2022-11-18T16:54:52;6.53;;;2.22;;
14704;SDS011;7442;50.840;3.396;2022-11-18T16:57:22;10.63;;;3.17;;
14704;SDS011;7442;50.840;3.396;2022-11-18T16:59:52;6.08;;;2.50;;
14704;SDS011;7442;50.840;3.396;2022-11-18T17:02:22;4.55;;;2.30;;
14704;SDS011;7442;50.840;3.396;2022-11-18T17:04:52;9.13;;;2.83;;